Time;durP1;ratioP1;P1;durP2;ratioP2;P2;SDS_P1;SDS_P2;PMS_P1;PMS_P2;Temp;Humidity;BMP_temperature;BMP_pressure;BME280_temperature;BME280_humidity;BME280_pressure;Samples;Min_cycle;Max_cycle;Signal;HPM_P1;HPM_P2
2022/11/23 00:00:57;;;;;;;18.25;9.32;;;;;;;;;;5033380;28;20046;-75
2022/11/23 00:03:23;;;;;;;20.77;9.95;;;;;;;;;;5033589;28;20384;-75
2022/11/23 00:05:49;;;;;;;19.63;9.07;;;;;;;;;;5033463;28;20025;-75
2022/11/23 00:08:15;;;;;;;20.25;8.70;;;;;;;;;;5033437;28;20025;-75
2022/11/23 00:10:41;;;;;;;21.00;9.50;;;;;;;;;;5033451;28;20040;-75
2022/11/23 00:13:07;;;;;;;21.92;10.55;;;;;;;;;;5033026;28;20115;-75
2022/11/23 00:15:34;;;;;;;23.15;11.00;;;;;;;;;;5032851;28;20064;-75
2022/11/23 00:18:01;;;;;;;19.23;9.75;;;;;;;;;;5033185;28;20022;-75
2022/11/23 00:20:27;;;;;;;23.23;10.95;;;;;;;;;;5031105;28;20475;-75
2022/11/23 00:22:53;;;;;;;30.48;10.75;;;;;;;;;;5013347;28;20026;-75
2022/11/23 00:25:19;;;;;;;19.13;11.20;;;;;;;;;;5020459;28;20053;-75
2022/11/23 00:27:45;;;;;;;23.88;11.18;;;;;;;;;;5031280;28;20383;-75
2022/11/23 00:30:11;;;;;;;31.40;12.40;;;;;;;;;;5027938;28;20026;-75
2022/11/23 00:32:37;;;;;;;24.52;11.55;;;;;;;;;;5013024;28;20045;-75
2022/11/23 00:35:04;;;;;;;24.33;12.18;;;;;;;;;;5013289;28;20025;-75
2022/11/23 00:37:30;;;;;;;27.80;12.85;;;;;;;;;;5018544;28;20088;-75
2022/11/23 00:39:56;;;;;;;26.40;12.95;;;;;;;;;;5032812;28;20464;-75
2022/11/23 00:42:22;;;;;;;26.45;13.23;;;;;;;;;;5032401;28;20034;-75
2022/11/23 00:44:48;;;;;;;27.67;13.70;;;;;;;;;;5032674;28;20112;-75
2022/11/23 00:47:14;;;;;;;23.38;13.52;;;;;;;;;;5032534;28;20025;-75
2022/11/23 00:49:40;;;;;;;29.02;13.88;;;;;;;;;;5032492;28;20038;-75
2022/11/23 00:52:06;;;;;;;28.90;14.18;;;;;;;;;;5032509;28;20029;-75
2022/11/23 00:54:32;;;;;;;33.78;13.52;;;;;;;;;;5032254;28;20383;-75
2022/11/23 00:56:58;;;;;;;27.75;14.35;;;;;;;;;;5032462;28;20483;-75
2022/11/23 00:59:24;;;;;;;29.20;13.90;;;;;;;;;;5032295;28;20526;-75
2022/11/23 01:01:50;;;;;;;29.88;14.45;;;;;;;;;;5032267;28;20033;-75
2022/11/23 01:04:16;;;;;;;27.85;15.90;;;;;;;;;;5032227;28;20033;-75
2022/11/23 01:06:42;;;;;;;31.00;15.02;;;;;;;;;;5014338;28;20076;-75
2022/11/23 01:09:13;;;;;;;29.42;15.55;;;;;;;;;;5032360;28;20040;-75
2022/11/23 01:11:39;;;;;;;31.95;15.27;;;;;;;;;;5014422;28;20087;-75
2022/11/23 01:14:05;;;;;;;28.27;15.35;;;;;;;;;;5023204;28;20112;-75
2022/11/23 01:16:36;;;;;;;34.60;15.25;;;;;;;;;;4994578;28;20550;-75
2022/11/23 01:19:04;;;;;;;30.38;15.07;;;;;;;;;;5014306;28;20022;-75
2022/11/23 01:21:31;;;;;;;33.95;15.38;;;;;;;;;;5031093;28;20029;-75
2022/11/23 01:23:57;;;;;;;29.50;14.85;;;;;;;;;;5030414;28;20113;-75
2022/11/23 01:26:23;;;;;;;31.45;15.23;;;;;;;;;;5024205;28;20488;-75
2022/11/23 01:28:49;;;;;;;37.85;15.27;;;;;;;;;;5031345;28;20554;-75
2022/11/23 01:31:21;;;;;;;27.88;14.43;;;;;;;;;;4983785;28;20378;-75
2022/11/23 01:33:47;;;;;;;31.00;15.65;;;;;;;;;;5011925;28;20468;-74
2022/11/23 01:36:17;;;;;;;30.55;15.70;;;;;;;;;;5012146;28;20093;-75
2022/11/23 01:38:44;;;;;;;27.42;14.80;;;;;;;;;;5010355;28;20046;-75
2022/11/23 01:41:18;;;;;;;29.65;14.65;;;;;;;;;;5010830;28;20515;-75
2022/11/23 01:43:44;;;;;;;30.48;14.25;;;;;;;;;;5007762;28;20033;-75
2022/11/23 01:46:11;;;;;;;30.05;16.58;;;;;;;;;;5010504;28;20034;-75
2022/11/23 01:48:37;;;;;;;41.08;15.60;;;;;;;;;;5010736;28;20460;-75
2022/11/23 01:51:05;;;;;;;32.75;15.73;;;;;;;;;;5011688;28;20399;-75
2022/11/23 01:53:32;;;;;;;29.52;14.75;;;;;;;;;;5011977;28;20464;-75
2022/11/23 01:56:00;;;;;;;32.47;15.02;;;;;;;;;;5029359;28;20032;-75
2022/11/23 01:58:29;;;;;;;27.25;14.80;;;;;;;;;;5031610;28;20045;-75
2022/11/23 02:00:55;;;;;;;28.88;14.80;;;;;;;;;;5031363;28;20041;-75
2022/11/23 02:03:22;;;;;;;26.60;14.15;;;;;;;;;;5031618;28;20040;-75
2022/11/23 02:05:49;;;;;;;34.17;13.88;;;;;;;;;;5031666;28;20049;-75
2022/11/23 02:08:16;;;;;;;29.00;15.25;;;;;;;;;;5031427;28;20375;-75
2022/11/23 02:10:42;;;;;;;24.13;13.30;;;;;;;;;;5031701;28;20029;-75
2022/11/23 02:13:10;;;;;;;31.33;13.23;;;;;;;;;;5031536;28;20413;-75
2022/11/23 02:15:36;;;;;;;28.23;13.45;;;;;;;;;;5031567;28;20072;-75
2022/11/23 02:18:04;;;;;;;27.75;12.07;;;;;;;;;;5031252;28;20025;-75
2022/11/23 02:20:30;;;;;;;31.98;12.52;;;;;;;;;;5030102;28;20032;-75
2022/11/23 02:23:03;;;;;;;24.40;11.63;;;;;;;;;;5011639;28;20085;-75
2022/11/23 02:25:45;;;;;;;21.17;10.75;;;;;;;;;;5027102;28;20100;-75
2022/11/23 02:28:31;;;;;;;23.40;9.65;;;;;;;;;;5011850;28;20473;-75
2022/11/23 02:30:57;;;;;;;21.60;9.65;;;;;;;;;;4995361;28;20116;-75
2022/11/23 02:33:24;;;;;;;25.10;9.30;;;;;;;;;;5031489;28;20345;-75
2022/11/23 02:35:54;;;;;;;19.25;8.65;;;;;;;;;;5031197;28;20057;-75
2022/11/23 02:38:21;;;;;;;23.50;9.68;;;;;;;;;;5018657;28;20104;-75
2022/11/23 02:40:47;;;;;;;19.23;9.30;;;;;;;;;;5015257;28;20456;-75
2022/11/23 02:43:13;;;;;;;19.63;8.43;;;;;;;;;;5031134;28;20582;-75
2022/11/23 02:45:43;;;;;;;19.00;8.45;;;;;;;;;;5035295;28;20018;-75
2022/11/23 02:48:09;;;;;;;20.48;8.23;;;;;;;;;;5035044;28;20087;-75
2022/11/23 02:50:35;;;;;;;27.90;8.35;;;;;;;;;;5035255;28;20115;-75
2022/11/23 02:53:01;;;;;;;24.48;8.32;;;;;;;;;;5034712;28;20040;-75
2022/11/23 02:55:27;;;;;;;23.83;8.23;;;;;;;;;;5034454;28;20087;-75
2022/11/23 02:57:53;;;;;;;22.70;8.05;;;;;;;;;;5034640;28;20033;-75
2022/11/23 03:00:19;;;;;;;21.58;7.78;;;;;;;;;;5034159;28;20032;-75
2022/11/23 03:02:45;;;;;;;17.48;7.80;;;;;;;;;;5034553;28;20038;-75
2022/11/23 03:05:11;;;;;;;22.67;8.27;;;;;;;;;;5034648;28;20038;-75
2022/11/23 03:07:37;;;;;;;19.33;7.32;;;;;;;;;;5034542;28;20018;-75
2022/11/23 03:10:04;;;;;;;24.85;7.90;;;;;;;;;;5034300;28;20032;-75
2022/11/23 03:12:30;;;;;;;18.55;7.32;;;;;;;;;;5034522;28;20522;-75
2022/11/23 03:14:56;;;;;;;17.20;7.15;;;;;;;;;;5034200;28;20087;-75
2022/11/23 03:17:22;;;;;;;19.45;7.03;;;;;;;;;;5034183;28;20036;-75
2022/11/23 03:19:48;;;;;;;16.13;6.97;;;;;;;;;;5032210;28;20442;-75
2022/11/23 03:22:14;;;;;;;23.30;7.43;;;;;;;;;;5019437;28;20026;-75
2022/11/23 03:24:40;;;;;;;21.20;8.05;;;;;;;;;;5021940;28;20026;-76
2022/11/23 03:27:06;;;;;;;23.58;8.90;;;;;;;;;;5028111;28;20033;-75
2022/11/23 03:29:32;;;;;;;20.75;7.68;;;;;;;;;;5033721;28;20026;-75
2022/11/23 03:31:58;;;;;;;14.60;7.50;;;;;;;;;;5014154;28;20022;-75
2022/11/23 03:34:24;;;;;;;18.55;7.10;;;;;;;;;;5014310;28;20393;-75
2022/11/23 03:36:50;;;;;;;16.65;7.55;;;;;;;;;;5015080;28;20036;-75
2022/11/23 03:39:16;;;;;;;16.90;7.18;;;;;;;;;;5033898;28;20021;-75
2022/11/23 03:41:43;;;;;;;13.60;6.82;;;;;;;;;;5033387;28;20451;-75
2022/11/23 03:44:09;;;;;;;20.70;5.95;;;;;;;;;;5030421;28;20037;-75
2022/11/23 03:46:35;;;;;;;13.82;6.78;;;;;;;;;;5033828;28;20476;-75
2022/11/23 03:49:01;;;;;;;12.95;5.90;;;;;;;;;;5016081;28;20037;-75
2022/11/23 03:51:27;;;;;;;16.58;5.70;;;;;;;;;;5014934;28;20025;-75
2022/11/23 03:53:53;;;;;;;13.10;5.65;;;;;;;;;;5033312;28;20127;-75
2022/11/23 03:56:19;;;;;;;15.23;6.30;;;;;;;;;;5033408;28;20104;-75
2022/11/23 03:58:45;;;;;;;14.02;5.65;;;;;;;;;;5033849;28;20029;-75
2022/11/23 04:01:11;;;;;;;16.88;6.00;;;;;;;;;;5033173;28;20057;-75
2022/11/23 04:03:37;;;;;;;15.70;6.10;;;;;;;;;;5033714;28;20022;-75
2022/11/23 04:06:03;;;;;;;14.10;5.97;;;;;;;;;;5033136;28;20041;-75
2022/11/23 04:08:29;;;;;;;13.93;6.03;;;;;;;;;;5033619;28;20506;-75
2022/11/23 04:10:58;;;;;;;16.08;5.72;;;;;;;;;;5033318;28;20083;-75
2022/11/23 04:13:24;;;;;;;16.23;5.22;;;;;;;;;;5029118;28;20030;-75
2022/11/23 04:15:51;;;;;;;19.67;5.75;;;;;;;;;;5032841;28;20029;-75
2022/11/23 04:18:17;;;;;;;20.35;6.38;;;;;;;;;;5015555;28;20049;-74
2022/11/23 04:20:43;;;;;;;16.30;5.30;;;;;;;;;;5029992;28;20120;-75
2022/11/23 04:23:09;;;;;;;15.80;5.20;;;;;;;;;;5013071;28;20072;-75
2022/11/23 04:25:35;;;;;;;13.38;5.78;;;;;;;;;;5005402;28;20042;-75
2022/11/23 04:28:01;;;;;;;13.80;6.00;;;;;;;;;;5032983;28;20033;-75
2022/11/23 04:30:27;;;;;;;14.75;5.28;;;;;;;;;;5024969;28;20034;-75
2022/11/23 04:32:53;;;;;;;18.83;6.07;;;;;;;;;;5013096;28;20038;-74
2022/11/23 04:35:20;;;;;;;16.90;5.47;;;;;;;;;;4995749;28;20045;-74
2022/11/23 04:37:46;;;;;;;22.17;5.53;;;;;;;;;;5021619;28;20060;-75
2022/11/23 04:40:12;;;;;;;18.05;5.57;;;;;;;;;;5032966;28;20043;-75
2022/11/23 04:42:38;;;;;;;20.88;5.82;;;;;;;;;;5024470;28;20033;-74
2022/11/23 04:45:04;;;;;;;17.98;4.70;;;;;;;;;;5032602;28;20025;-74
2022/11/23 04:47:31;;;;;;;16.77;4.72;;;;;;;;;;5032459;28;20021;-74
2022/11/23 04:49:57;;;;;;;15.35;4.82;;;;;;;;;;5032618;28;20037;-75
2022/11/23 04:52:23;;;;;;;15.77;4.63;;;;;;;;;;5032300;28;20364;-75
2022/11/23 04:54:49;;;;;;;16.92;4.50;;;;;;;;;;5032634;28;20392;-75
2022/11/23 04:57:15;;;;;;;18.10;4.57;;;;;;;;;;5040457;28;20032;-74
2022/11/23 04:59:41;;;;;;;16.63;5.35;;;;;;;;;;5052294;28;20047;-75
2022/11/23 05:02:07;;;;;;;14.65;4.95;;;;;;;;;;5051822;28;20057;-75
2022/11/23 05:04:33;;;;;;;16.48;4.82;;;;;;;;;;5052414;28;20032;-75
2022/11/23 05:06:59;;;;;;;11.80;4.13;;;;;;;;;;5034048;28;20028;-75
2022/11/23 05:09:25;;;;;;;11.15;4.57;;;;;;;;;;5052270;28;20056;-75
2022/11/23 05:11:51;;;;;;;18.30;4.30;;;;;;;;;;5052009;28;20071;-75
2022/11/23 05:14:18;;;;;;;16.95;4.10;;;;;;;;;;5042789;28;20087;-75
2022/11/23 05:16:44;;;;;;;13.95;4.07;;;;;;;;;;5014126;28;20021;-75
2022/11/23 05:19:10;;;;;;;16.40;3.95;;;;;;;;;;5031310;28;20037;-75
2022/11/23 05:21:36;;;;;;;16.98;4.38;;;;;;;;;;5031760;28;20376;-74
2022/11/23 05:24:02;;;;;;;18.05;4.45;;;;;;;;;;5031189;28;20052;-76
2022/11/23 05:26:28;;;;;;;18.85;4.85;;;;;;;;;;5005469;28;20026;-76
2022/11/23 05:28:54;;;;;;;14.40;4.65;;;;;;;;;;5012331;28;20031;-76
2022/11/23 05:31:20;;;;;;;18.95;5.28;;;;;;;;;;5027483;28;20021;-76
2022/11/23 05:33:46;;;;;;;17.48;4.95;;;;;;;;;;5031852;28;20026;-76
2022/11/23 05:36:12;;;;;;;16.45;4.40;;;;;;;;;;5031981;28;20030;-76
2022/11/23 05:38:39;;;;;;;19.33;4.22;;;;;;;;;;5031896;28;20431;-76
2022/11/23 05:41:05;;;;;;;15.65;3.80;;;;;;;;;;5031729;28;20017;-76
2022/11/23 05:43:31;;;;;;;20.38;3.55;;;;;;;;;;5031860;28;20021;-76
2022/11/23 05:46:01;;;;;;;12.57;3.45;;;;;;;;;;5013923;28;20548;-76
2022/11/23 05:48:27;;;;;;;16.17;3.40;;;;;;;;;;5031801;28;20121;-76
2022/11/23 05:50:53;;;;;;;15.00;3.90;;;;;;;;;;5014105;28;20037;-76
2022/11/23 05:53:19;;;;;;;18.30;3.88;;;;;;;;;;5031584;28;20079;-76
2022/11/23 05:55:45;;;;;;;8.88;3.15;;;;;;;;;;5031697;28;20030;-76
2022/11/23 05:58:11;;;;;;;17.90;4.13;;;;;;;;;;5031740;28;20030;-76
2022/11/23 06:00:37;;;;;;;16.42;3.42;;;;;;;;;;5013806;28;20049;-76
2022/11/23 06:03:03;;;;;;;15.88;3.45;;;;;;;;;;5031478;28;20110;-76
2022/11/23 06:05:29;;;;;;;16.60;2.92;;;;;;;;;;5032034;28;20494;-76
2022/11/23 06:07:56;;;;;;;17.05;3.35;;;;;;;;;;5031330;28;20384;-76
2022/11/23 06:10:22;;;;;;;18.48;2.97;;;;;;;;;;5031656;28;20025;-76
2022/11/23 06:12:48;;;;;;;11.77;3.05;;;;;;;;;;5031219;28;20025;-76
2022/11/23 06:15:15;;;;;;;10.77;2.63;;;;;;;;;;5016163;28;20038;-76
2022/11/23 06:17:41;;;;;;;16.30;3.00;;;;;;;;;;5015433;28;20026;-76
2022/11/23 06:20:07;;;;;;;12.90;3.30;;;;;;;;;;5030359;28;20056;-76
2022/11/23 06:22:33;;;;;;;15.93;3.58;;;;;;;;;;5017305;28;20033;-76
2022/11/23 06:25:00;;;;;;;16.05;3.78;;;;;;;;;;5023768;28;20033;-76
2022/11/23 06:27:26;;;;;;;13.45;3.03;;;;;;;;;;5014829;28;20072;-76
2022/11/23 06:29:52;;;;;;;16.70;2.88;;;;;;;;;;5031342;28;20105;-76
2022/11/23 06:32:18;;;;;;;14.65;3.70;;;;;;;;;;5015309;28;20037;-76
2022/11/23 06:34:44;;;;;;;14.70;3.00;;;;;;;;;;5015151;28;20025;-76
2022/11/23 06:37:10;;;;;;;22.65;2.95;;;;;;;;;;5019704;28;20025;-76
2022/11/23 06:39:36;;;;;;;13.65;2.88;;;;;;;;;;5035033;28;20030;-76
2022/11/23 06:42:02;;;;;;;23.52;3.85;;;;;;;;;;5034737;28;20024;-76
2022/11/23 06:44:29;;;;;;;17.00;2.47;;;;;;;;;;5034922;28;20030;-76
2022/11/23 06:46:55;;;;;;;23.13;2.60;;;;;;;;;;5000840;28;20028;-76
2022/11/23 06:49:21;;;;;;;13.68;2.42;;;;;;;;;;5035022;28;20037;-76
2022/11/23 06:51:47;;;;;;;13.48;2.20;;;;;;;;;;5034674;28;20044;-76
2022/11/23 06:54:13;;;;;;;18.58;2.67;;;;;;;;;;5034958;28;20044;-76
2022/11/23 06:56:39;;;;;;;16.63;2.88;;;;;;;;;;5034549;28;20055;-76
2022/11/23 06:59:05;;;;;;;23.02;2.70;;;;;;;;;;5034794;28;20177;-76
2022/11/23 07:01:31;;;;;;;23.27;2.85;;;;;;;;;;5034227;28;20077;-76
2022/11/23 07:03:57;;;;;;;14.15;2.10;;;;;;;;;;5034538;28;20099;-76
2022/11/23 07:06:24;;;;;;;23.05;3.08;;;;;;;;;;5034573;28;20025;-76
2022/11/23 07:08:50;;;;;;;16.38;2.13;;;;;;;;;;5017047;28;20546;-76
2022/11/23 07:11:16;;;;;;;13.15;2.35;;;;;;;;;;5034577;28;20118;-76
2022/11/23 07:13:42;;;;;;;21.63;2.42;;;;;;;;;;5027644;28;20038;-76
2022/11/23 07:16:08;;;;;;;20.80;2.88;;;;;;;;;;5014834;28;20034;-76
2022/11/23 07:18:34;;;;;;;21.40;2.85;;;;;;;;;;5017451;28;20217;-76
2022/11/23 07:21:01;;;;;;;11.65;2.10;;;;;;;;;;5034125;28;20083;-76
2022/11/23 07:23:27;;;;;;;18.58;2.65;;;;;;;;;;5032860;28;20040;-76
2022/11/23 07:25:53;;;;;;;15.77;2.78;;;;;;;;;;5024900;28;20116;-76
2022/11/23 07:28:19;;;;;;;10.35;2.47;;;;;;;;;;5016480;28;20033;-76
2022/11/23 07:30:45;;;;;;;17.08;3.03;;;;;;;;;;5016456;28;20108;-76
2022/11/23 07:33:12;;;;;;;12.85;3.40;;;;;;;;;;5034029;28;20083;-76
2022/11/23 07:35:39;;;;;;;23.65;4.55;;;;;;;;;;5034141;28;20025;-76
2022/11/23 07:38:06;;;;;;;26.65;6.20;;;;;;;;;;5033889;28;20018;-76
2022/11/23 07:40:33;;;;;;;21.55;4.70;;;;;;;;;;5033735;28;20063;-76
2022/11/23 07:43:00;;;;;;;14.95;3.47;;;;;;;;;;5033889;28;20080;-76
2022/11/23 07:45:27;;;;;;;27.38;5.28;;;;;;;;;;5033799;28;20026;-76
2022/11/23 07:48:03;;;;;;;20.05;3.25;;;;;;;;;;5033869;28;20037;-76
2022/11/23 07:50:29;;;;;;;16.48;2.80;;;;;;;;;;5034049;28;20415;-76
2022/11/23 07:52:56;;;;;;;17.13;2.65;;;;;;;;;;5033614;28;20112;-76
2022/11/23 07:55:22;;;;;;;18.75;3.20;;;;;;;;;;5033483;28;20037;-76
2022/11/23 07:57:52;;;;;;;17.10;2.60;;;;;;;;;;5027689;28;20034;-77
2022/11/23 08:00:19;;;;;;;18.88;2.58;;;;;;;;;;5020975;28;20022;-76
2022/11/23 08:02:45;;;;;;;20.83;2.80;;;;;;;;;;5017162;28;20040;-77
2022/11/23 08:05:11;;;;;;;18.50;3.03;;;;;;;;;;5019152;28;20037;-76
2022/11/23 08:07:37;;;;;;;23.17;3.03;;;;;;;;;;5022355;28;20436;-76
2022/11/23 08:10:03;;;;;;;14.75;2.80;;;;;;;;;;5026005;28;20037;-76
2022/11/23 08:12:29;;;;;;;18.55;2.97;;;;;;;;;;5021750;28;20123;-76
2022/11/23 08:14:55;;;;;;;21.10;2.85;;;;;;;;;;5019381;28;20060;-76
2022/11/23 08:17:21;;;;;;;17.17;2.80;;;;;;;;;;5022885;28;20057;-76
2022/11/23 08:19:47;;;;;;;12.63;2.85;;;;;;;;;;5021571;28;20080;-76
2022/11/23 08:22:13;;;;;;;16.55;2.67;;;;;;;;;;5021993;28;20061;-76
2022/11/23 08:24:39;;;;;;;16.65;2.28;;;;;;;;;;5005431;28;20099;-76
2022/11/23 08:27:05;;;;;;;22.83;2.53;;;;;;;;;;5018745;28;20526;-76
2022/11/23 08:29:31;;;;;;;21.92;2.85;;;;;;;;;;5028644;28;20407;-76
2022/11/23 08:31:57;;;;;;;19.73;2.70;;;;;;;;;;5025440;28;20469;-76
2022/11/23 08:34:24;;;;;;;23.15;3.05;;;;;;;;;;5015462;28;20030;-77
2022/11/23 08:36:50;;;;;;;17.65;2.90;;;;;;;;;;5017323;28;20053;-78
2022/11/23 08:39:18;;;;;;;19.15;2.53;;;;;;;;;;5023980;28;20094;-78
2022/11/23 08:41:44;;;;;;;19.83;3.60;;;;;;;;;;4992477;28;20112;-78
2022/11/23 08:44:11;;;;;;;14.43;2.42;;;;;;;;;;5023058;28;20050;-78
2022/11/23 08:46:37;;;;;;;26.98;3.10;;;;;;;;;;5020686;28;20087;-78
2022/11/23 08:49:03;;;;;;;23.75;2.88;;;;;;;;;;5022034;28;20488;-77
2022/11/23 08:51:29;;;;;;;25.77;2.90;;;;;;;;;;5017424;28;20488;-78
2022/11/23 08:53:55;;;;;;;18.95;2.78;;;;;;;;;;5024248;28;20029;-78
2022/11/23 08:56:21;;;;;;;17.30;2.90;;;;;;;;;;5025656;28;20022;-78
2022/11/23 08:58:47;;;;;;;18.42;3.20;;;;;;;;;;5006362;28;20033;-78
2022/11/23 09:01:14;;;;;;;22.15;2.70;;;;;;;;;;5026814;28;20049;-77
2022/11/23 09:03:41;;;;;;;22.40;2.83;;;;;;;;;;5003470;28;20096;-77
2022/11/23 09:06:07;;;;;;;15.25;2.13;;;;;;;;;;5022439;28;20030;-77
2022/11/23 09:08:34;;;;;;;19.67;2.53;;;;;;;;;;5023062;28;20483;-77
2022/11/23 09:11:00;;;;;;;21.10;2.10;;;;;;;;;;5024403;28;20064;-77
2022/11/23 09:13:27;;;;;;;17.00;2.30;;;;;;;;;;5022943;28;20075;-77
2022/11/23 09:15:56;;;;;;;17.20;2.10;;;;;;;;;;5021602;28;20025;-77
2022/11/23 09:18:23;;;;;;;13.20;2.20;;;;;;;;;;5022616;28;20017;-77
2022/11/23 09:20:49;;;;;;;15.68;2.15;;;;;;;;;;5006895;28;20105;-77
2022/11/23 09:23:15;;;;;;;23.02;2.60;;;;;;;;;;5019738;28;20022;-77
2022/11/23 09:25:42;;;;;;;15.35;2.50;;;;;;;;;;5012178;28;20064;-77
2022/11/23 09:28:08;;;;;;;17.25;2.97;;;;;;;;;;5019691;28;20092;-76
2022/11/23 09:30:34;;;;;;;14.60;2.17;;;;;;;;;;5022438;28;20061;-76
2022/11/23 09:33:00;;;;;;;19.30;2.15;;;;;;;;;;5031924;28;20021;-77
2022/11/23 09:35:26;;;;;;;18.17;2.28;;;;;;;;;;5031546;28;20095;-77
2022/11/23 09:37:56;;;;;;;19.15;2.03;;;;;;;;;;5031767;28;20037;-77
2022/11/23 09:40:22;;;;;;;22.13;2.63;;;;;;;;;;5032053;28;20420;-77
2022/11/23 09:43:10;;;;;;;36.08;2.95;;;;;;;;;;5029443;28;20048;-77
2022/11/23 09:45:45;;;;;;;12.52;2.00;;;;;;;;;;5031033;28;20698;-77
2022/11/23 09:48:23;;;;;;;15.43;2.15;;;;;;;;;;5012295;28;20045;-76
2022/11/23 09:50:52;;;;;;;18.73;2.08;;;;;;;;;;5030900;28;20028;-76
2022/11/23 09:53:24;;;;;;;13.35;2.55;;;;;;;;;;5012618;28;20120;-76
2022/11/23 09:55:52;;;;;;;16.85;2.47;;;;;;;;;;5030401;28;20387;-76
2022/11/23 09:58:19;;;;;;;15.63;2.53;;;;;;;;;;5030916;28;20026;-76
2022/11/23 10:00:48;;;;;;;20.23;2.17;;;;;;;;;;5020236;28;20036;-76
2022/11/23 10:03:15;;;;;;;11.27;1.77;;;;;;;;;;5029477;28;20044;-76
2022/11/23 10:05:43;;;;;;;13.45;2.28;;;;;;;;;;5043179;28;20036;-75
2022/11/23 10:08:09;;;;;;;16.15;2.45;;;;;;;;;;5042318;28;20018;-75
2022/11/23 10:10:50;;;;;;;11.32;2.00;;;;;;;;;;5024386;28;20036;-75
2022/11/23 10:13:16;;;;;;;17.08;2.47;;;;;;;;;;5042549;28;20033;-75
2022/11/23 10:15:53;;;;;;;13.93;2.10;;;;;;;;;;5024413;28;20474;-75
2022/11/23 10:18:28;;;;;;;14.50;2.33;;;;;;;;;;5030677;28;20018;-75
2022/11/23 10:21:13;;;;;;;12.45;2.13;;;;;;;;;;5022323;28;20199;-75
2022/11/23 10:23:57;;;;;;;17.17;3.45;;;;;;;;;;5016316;28;20038;-75
2022/11/23 10:26:29;;;;;;;17.35;2.13;;;;;;;;;;5023321;28;20038;-75
2022/11/23 10:28:56;;;;;;;15.65;2.08;;;;;;;;;;5017485;28;20111;-74
2022/11/23 10:31:24;;;;;;;13.05;1.90;;;;;;;;;;5028903;28;20033;-75
2022/11/23 10:34:29;;;;;;;12.93;1.83;;;;;;;;;;5028307;28;20098;-75
2022/11/23 10:36:56;;;;;;;24.17;2.50;;;;;;;;;;4967732;28;20031;-75
2022/11/23 10:39:23;;;;;;;13.38;2.13;;;;;;;;;;4969212;28;20034;-75
2022/11/23 10:41:53;;;;;;;14.82;2.60;;;;;;;;;;4997703;28;20052;-75
2022/11/23 10:44:19;;;;;;;17.75;2.90;;;;;;;;;;5050970;28;20116;-74
2022/11/23 10:46:45;;;;;;;13.85;2.58;;;;;;;;;;5028402;28;20093;-74
2022/11/23 10:49:17;;;;;;;20.90;2.88;;;;;;;;;;5004340;28;20037;-75
2022/11/23 10:51:58;;;;;;;9.85;1.83;;;;;;;;;;5029693;28;20026;-74
2022/11/23 10:54:53;;;;;;;20.70;2.30;;;;;;;;;;5030738;28;20040;-75
2022/11/23 10:57:28;;;;;;;17.75;2.13;;;;;;;;;;5030609;28;20026;-78
2022/11/23 11:00:13;;;;;;;10.90;1.67;;;;;;;;;;5015867;28;20021;-80
2022/11/23 11:02:45;;;;;;;17.20;1.88;;;;;;;;;;5017699;28;20049;-79
2022/11/23 11:05:15;;;;;;;15.95;2.13;;;;;;;;;;5035894;28;20029;-80
2022/11/23 11:07:41;;;;;;;9.68;1.90;;;;;;;;;;5035548;28;20025;-79
2022/11/23 11:10:27;;;;;;;13.02;1.80;;;;;;;;;;5035434;28;20464;-80
2022/11/23 11:12:53;;;;;;;11.93;1.85;;;;;;;;;;5044773;28;20116;-80
2022/11/23 11:15:19;;;;;;;9.20;2.10;;;;;;;;;;5011382;28;20068;-80
2022/11/23 11:17:54;;;;;;;14.95;3.30;;;;;;;;;;5010804;28;20388;-80
2022/11/23 11:20:23;;;;;;;14.73;1.90;;;;;;;;;;5032350;28;20029;-80
2022/11/23 11:22:49;;;;;;;12.93;2.28;;;;;;;;;;5017682;28;20030;-80
2022/11/23 11:25:27;;;;;;;15.93;2.10;;;;;;;;;;5001246;28;20030;-80
2022/11/23 11:27:53;;;;;;;9.82;1.95;;;;;;;;;;5033370;28;20517;-80
2022/11/23 11:30:23;;;;;;;9.18;2.30;;;;;;;;;;5034914;28;20041;-80
2022/11/23 11:32:58;;;;;;;10.73;1.83;;;;;;;;;;5034513;28;20026;-80
2022/11/23 11:35:27;;;;;;;13.35;1.73;;;;;;;;;;5015221;28;20041;-78
2022/11/23 11:37:57;;;;;;;11.95;2.17;;;;;;;;;;5015223;28;20101;-79
2022/11/23 11:40:43;;;;;;;13.88;2.10;;;;;;;;;;5014783;28;20029;-79
2022/11/23 11:43:20;;;;;;;9.25;1.65;;;;;;;;;;5020435;28;20049;-81
2022/11/23 11:45:47;;;;;;;6.22;1.40;;;;;;;;;;5013182;28;20026;-81
2022/11/23 11:48:17;;;;;;;14.88;1.88;;;;;;;;;;4996676;28;20648;-81
2022/11/23 11:50:49;;;;;;;9.05;1.40;;;;;;;;;;4996745;28;20030;-81
2022/11/23 11:53:18;;;;;;;13.82;1.65;;;;;;;;;;4996558;28;20543;-81
2022/11/23 11:55:53;;;;;;;15.23;2.38;;;;;;;;;;5030365;28;20021;-82
2022/11/23 11:58:22;;;;;;;11.95;1.88;;;;;;;;;;5034502;28;20028;-81
2022/11/23 12:00:48;;;;;;;9.80;1.60;;;;;;;;;;5034739;28;20026;-81
2022/11/23 12:03:19;;;;;;;12.05;1.60;;;;;;;;;;5016666;28;20045;-81
2022/11/23 12:05:52;;;;;;;5.53;1.13;;;;;;;;;;5034605;28;20053;-81
2022/11/23 12:08:21;;;;;;;10.55;1.80;;;;;;;;;;5034549;28;20030;-81
2022/11/23 12:10:47;;;;;;;8.30;1.58;;;;;;;;;;5033926;28;20068;-82
2022/11/23 12:13:15;;;;;;;10.35;1.70;;;;;;;;;;5041306;28;20417;-82
2022/11/23 12:15:45;;;;;;;12.10;2.60;;;;;;;;;;5024782;28;20131;-81
2022/11/23 12:18:29;;;;;;;9.43;1.58;;;;;;;;;;5054215;28;20036;-81
2022/11/23 12:21:13;;;;;;;10.85;1.50;;;;;;;;;;5014348;28;20030;-81
2022/11/23 12:23:39;;;;;;;12.18;1.20;;;;;;;;;;5018481;28;20040;-82
2022/11/23 12:26:08;;;;;;;5.88;1.20;;;;;;;;;;5034340;28;20032;-81
2022/11/23 12:28:40;;;;;;;8.07;1.10;;;;;;;;;;5034166;28;20079;-81
2022/11/23 12:31:23;;;;;;;6.28;1.10;;;;;;;;;;5034192;28;20033;-81
2022/11/23 12:33:49;;;;;;;7.82;1.20;;;;;;;;;;5033412;28;20029;-81
2022/11/23 12:36:18;;;;;;;13.23;1.42;;;;;;;;;;5016720;28;20080;-79
2022/11/23 12:39:04;;;;;;;12.65;2.22;;;;;;;;;;5029691;28;20527;-79
2022/11/23 12:41:30;;;;;;;11.85;1.30;;;;;;;;;;5012215;28;20022;-78
2022/11/23 12:43:59;;;;;;;7.40;1.30;;;;;;;;;;5005963;28;20037;-79
2022/11/23 12:46:32;;;;;;;12.63;1.38;;;;;;;;;;5051424;28;20036;-79
2022/11/23 12:49:01;;;;;;;10.07;1.73;;;;;;;;;;5039882;28;20088;-79
2022/11/23 12:51:46;;;;;;;8.32;1.73;;;;;;;;;;5013934;28;20030;-79
2022/11/23 12:54:20;;;;;;;10.05;1.58;;;;;;;;;;5017247;28;20376;-79
2022/11/23 12:57:05;;;;;;;10.20;1.98;;;;;;;;;;5033586;28;20025;-79
2022/11/23 12:59:54;;;;;;;8.07;1.48;;;;;;;;;;5033588;28;20088;-80
2022/11/23 13:02:39;;;;;;;5.13;1.17;;;;;;;;;;5022912;28;20041;-79
2022/11/23 13:05:37;;;;;;;12.07;1.40;;;;;;;;;;5033472;28;20041;-79
2022/11/23 13:08:06;;;;;;;5.93;1.40;;;;;;;;;;4994808;28;20046;-79
2022/11/23 13:10:41;;;;;;;10.38;1.23;;;;;;;;;;5024149;28;20030;-74
2022/11/23 13:13:26;;;;;;;14.18;1.55;;;;;;;;;;5018934;28;20044;-74
2022/11/23 13:16:04;;;;;;;5.85;1.42;;;;;;;;;;5019571;28;20372;-75
2022/11/23 13:18:36;;;;;;;7.85;1.23;;;;;;;;;;5029476;28;20022;-75
2022/11/23 13:21:21;;;;;;;7.82;1.23;;;;;;;;;;5031361;28;20044;-76
2022/11/23 13:23:47;;;;;;;10.82;1.13;;;;;;;;;;5029052;28;20022;-75
2022/11/23 13:26:16;;;;;;;9.40;1.35;;;;;;;;;;5021820;28;20025;-74
2022/11/23 13:28:42;;;;;;;14.00;1.48;;;;;;;;;;5021522;28;20397;-76
2022/11/23 13:31:15;;;;;;;5.15;1.27;;;;;;;;;;5025447;28;20021;-75
2022/11/23 13:33:41;;;;;;;;;;;;;;;;;;5012984;28;20466;-75
2022/11/23 13:36:10;;;;;;;7.18;1.20;;;;;;;;;;5012369;28;19905;-77
2022/11/23 13:38:40;;;;;;;5.95;1.15;;;;;;;;;;5028911;28;20380;-73
2022/11/23 13:41:35;;;;;;;12.32;1.27;;;;;;;;;;5021639;28;20369;-73
2022/11/23 13:44:16;;;;;;;13.65;1.40;;;;;;;;;;5007390;28;20034;-73
2022/11/23 13:46:42;;;;;;;3.80;1.05;;;;;;;;;;5029802;28;20028;-73
2022/11/23 13:49:29;;;;;;;7.15;1.15;;;;;;;;;;5033174;28;20030;-73
2022/11/23 13:52:05;;;;;;;9.27;1.15;;;;;;;;;;5022574;28;20022;-73
2022/11/23 13:54:32;;;;;;;4.47;1.00;;;;;;;;;;5021222;28;20927;-72
2022/11/23 13:57:01;;;;;;;7.78;1.13;;;;;;;;;;5023789;28;20383;-73
2022/11/23 13:59:29;;;;;;;10.27;1.02;;;;;;;;;;5024288;28;20380;-72
2022/11/23 14:02:02;;;;;;;10.13;1.50;;;;;;;;;;5019995;28;20369;-72
2022/11/23 14:04:29;;;;;;;5.22;0.90;;;;;;;;;;5024626;28;20033;-72
2022/11/23 14:06:56;;;;;;;9.20;1.25;;;;;;;;;;5024249;28;20029;-72
2022/11/23 14:09:29;;;;;;;9.23;1.00;;;;;;;;;;5021187;28;20049;-72
2022/11/23 14:11:55;;;;;;;7.53;0.98;;;;;;;;;;5009797;28;20523;-72
2022/11/23 14:14:24;;;;;;;7.32;1.15;;;;;;;;;;5004910;28;20038;-73
2022/11/23 14:17:05;;;;;;;6.90;1.15;;;;;;;;;;5030727;28;20080;-73
2022/11/23 14:19:31;;;;;;;12.07;2.05;;;;;;;;;;5019312;28;20038;-73
2022/11/23 14:22:06;;;;;;;9.27;1.40;;;;;;;;;;5002900;28;20022;-73
2022/11/23 14:24:43;;;;;;;10.48;2.53;;;;;;;;;;5025413;28;20025;-73
2022/11/23 14:27:15;;;;;;;6.47;1.30;;;;;;;;;;5022621;28;20025;-77
2022/11/23 14:29:55;;;;;;;8.68;1.35;;;;;;;;;;5024000;28;20029;-78
2022/11/23 14:32:41;;;;;;;7.03;1.30;;;;;;;;;;5020415;28;20037;-78
2022/11/23 14:35:23;;;;;;;10.25;1.33;;;;;;;;;;5025518;28;20021;-77
2022/11/23 14:38:07;;;;;;;7.40;1.33;;;;;;;;;;5026603;28;20024;-78
2022/11/23 14:40:46;;;;;;;8.48;1.35;;;;;;;;;;5022760;28;20071;-78